Aviation Digital Data Service (ADDS)

Output produced by METARs form (2136 UTC 20 October 2018)
found at http://www.aviationweather.gov/metar/data/
 
TAF TDPD 201700Z 2018/2118 11008KT 9999 SCT018 
     PROB30 
     TEMPO 2018/2022 SHRA BKN014